»·PEaware :: FDX1487 KCOS-KGJT

FDX1487 :: KCOS-KGJT

FLIGHT INFORMATION

Flight Status: Arrived
Operator:
Federal Express
More flights by this operator :: More flights under this callsign
Pilot: Skye D. (10623)
Aircraft: BOEING 757-200
(B752)
More flights by this aircraft type
Origin: KCOS City Of Colorado Springs Mun
United States
Destination: KGJT Walker
United States
More flights between these airports :: More routes between these airports
Route: BRK FQF J80 JNC
File this flight plan on PilotEdge
Remarks:
Altitude:
(Current/Filed)
26,000ft
Speed:
(Current/Filed)
420kts
Departed: 20-Oct-17 12:26 PM
Arrived: 20-Oct-17 01:20 PM
Distance/Time
Traveled:
180nm/0:54
Distance/Time
To Go:
Arrived

Flight Plot

Page will automatically refresh every two minutes.

Flight plan parsing failed; only flown route is shown


Map Options




Map Legend


Flown Route
Filed Route
Departure Airport
Arrival Airport
Navaid (VOR, NDB)
Fix

Horizontal Profiles

Position Reports

Time Latitude Longitude Heading Altitude Ground
Speed
20-Oct-17 11:58 38.814143 -104.721198 270 6212ft 0kts
20-Oct-17 11:59 38.814143 -104.721198 270 6212ft 0kts
20-Oct-17 12:00 38.814143 -104.721198 270 6212ft 0kts
20-Oct-17 12:01 38.814143 -104.721198 270 6212ft 0kts
20-Oct-17 12:02 38.814143 -104.721198 270 6212ft 0kts
20-Oct-17 12:03 38.814143 -104.721198 270 6212ft 0kts
20-Oct-17 12:04 38.814143 -104.721198 270 6212ft 0kts
20-Oct-17 12:05 38.814143 -104.721198 270 6212ft 0kts
20-Oct-17 12:06 38.814143 -104.721198 270 6212ft 0kts
20-Oct-17 12:07 38.814143 -104.721198 270 6212ft 0kts
20-Oct-17 12:08 38.814143 -104.721198 270 6212ft 0kts
20-Oct-17 12:09 38.814143 -104.721198 270 6212ft 0kts
20-Oct-17 12:10 38.814143 -104.721198 270 6212ft 0kts
20-Oct-17 12:11 38.814143 -104.721198 270 6212ft 0kts
20-Oct-17 12:12 38.814143 -104.721198 270 6212ft 0kts
20-Oct-17 12:13 38.814143 -104.721198 270 6212ft 0kts
20-Oct-17 12:14 38.814143 -104.721198 270 6212ft 0kts
20-Oct-17 12:15 38.814143 -104.721198 270 6212ft 0kts
20-Oct-17 12:16 38.814143 -104.721198 270 6212ft 0kts
20-Oct-17 12:17 38.814143 -104.721172 270 6212ft 0kts
20-Oct-17 12:18 38.814207 -104.720706 195 6212ft 0kts
20-Oct-17 12:19 38.814288 -104.720706 176 6212ft 0kts
20-Oct-17 12:20 38.814288 -104.720706 176 6212ft 0kts
20-Oct-17 12:21 38.814288 -104.720706 176 6212ft 0kts
20-Oct-17 12:22 38.814288 -104.720706 176 6212ft 0kts
20-Oct-17 12:23 38.814288 -104.720706 176 6212ft 0kts
20-Oct-17 12:24 38.812920 -104.719999 133 6212ft 6kts
20-Oct-17 12:25 38.812615 -104.719433 95 6212ft 0kts
20-Oct-17 12:26 38.812560 -104.718650 92 6212ft 14kts
20-Oct-17 12:27 38.814857 -104.717332 358 6212ft 17kts
20-Oct-17 12:28 38.819947 -104.717240 359 6212ft 21kts
20-Oct-17 12:29 38.822164 -104.717143 34 6212ft 7kts
20-Oct-17 12:30 38.821918 -104.715900 182 6212ft 14kts
20-Oct-17 12:31 38.787521 -104.716115 183 7468ft 168kts
20-Oct-17 12:32 38.733763 -104.715194 159 9027ft 250kts
20-Oct-17 12:33 38.720807 -104.627041 58 10085ft 291kts
20-Oct-17 12:34 38.801891 -104.569035 25 11918ft 367kts
20-Oct-17 12:35 38.896795 -104.543544 337 15292ft 363kts
20-Oct-17 12:36 38.999647 -104.568135 0 17786ft 397kts
20-Oct-17 12:37 39.107152 -104.572283 357 21006ft 389kts
20-Oct-17 12:38 39.214232 -104.580711 356 23353ft 398kts
20-Oct-17 12:39 39.322445 -104.589683 356 24478ft 421kts
20-Oct-17 12:40 39.434893 -104.599132 355 25801ft 409kts
20-Oct-17 12:41 39.537551 -104.607865 355 25796ft 409kts
20-Oct-17 12:42 39.634427 -104.649310 323 25804ft 411kts
20-Oct-17 12:43 39.691912 -104.762803 285 25808ft 420kts
20-Oct-17 12:44 39.681995 -104.904712 244 25838ft 426kts
20-Oct-17 12:45 39.647404 -105.034455 257 25800ft 404kts
20-Oct-17 12:46 39.629881 -105.175598 261 25787ft 400kts
20-Oct-17 12:47 39.614499 -105.317970 261 25781ft 400kts
20-Oct-17 12:48 39.599228 -105.459777 261 25767ft 401kts
20-Oct-17 12:49 39.584044 -105.599317 261 25753ft 401kts
20-Oct-17 12:50 39.569356 -105.735951 261 25865ft 400kts
20-Oct-17 12:51 39.556789 -105.850619 261 25975ft 399kts
20-Oct-17 12:52 39.542067 -105.981956 261 25994ft 399kts
20-Oct-17 12:53 39.526239 -106.121463 261 26003ft 399kts
20-Oct-17 12:54 39.509942 -106.263568 261 25989ft 399kts
20-Oct-17 12:55 39.493589 -106.404536 261 25962ft 399kts
20-Oct-17 12:56 39.477778 -106.544215 261 25912ft 399kts
20-Oct-17 12:57 39.461921 -106.683379 260 25904ft 399kts
20-Oct-17 12:58 39.446754 -106.814077 260 25894ft 399kts
20-Oct-17 12:59 39.427588 -106.943062 253 25900ft 392kts
20-Oct-17 13:00 39.401569 -107.075679 253 25903ft 390kts
20-Oct-17 13:01 39.377455 -107.203219 253 25359ft 394kts
20-Oct-17 13:02 39.353630 -107.325893 252 23560ft 393kts
20-Oct-17 13:03 39.328519 -107.453983 252 21853ft 381kts
20-Oct-17 13:04 39.303564 -107.580257 252 20899ft 384kts
20-Oct-17 13:05 39.279075 -107.704774 252 18768ft 368kts
20-Oct-17 13:06 39.258987 -107.806612 251 16993ft 360kts
20-Oct-17 13:07 39.234560 -107.928442 251 15076ft 347kts
20-Oct-17 13:08 39.211601 -108.046530 251 15073ft 351kts
20-Oct-17 13:09 39.189559 -108.156253 251 15057ft 351kts
20-Oct-17 13:10 39.166651 -108.268907 250 13731ft 309kts
20-Oct-17 13:11 39.147084 -108.359563 234 12015ft 259kts
20-Oct-17 13:12 39.100979 -108.416098 219 9843ft 251kts
20-Oct-17 13:13 39.053835 -108.468291 219 9023ft 225kts
20-Oct-17 13:14 39.012179 -108.514572 220 9038ft 203kts
20-Oct-17 13:15 38.961716 -108.521111 159 9043ft 220kts
20-Oct-17 13:16 38.908008 -108.486440 158 9042ft 222kts
20-Oct-17 13:17 38.855418 -108.453623 158 9049ft 223kts
20-Oct-17 13:18 38.848763 -108.392562 38 9073ft 232kts
20-Oct-17 13:19 38.900088 -108.366624 14 8700ft 234kts
20-Oct-17 13:20 38.953573 -108.358901 324 8558ft 221kts
20-Oct-17 13:21 38.999719 -108.403518 315 7858ft 219kts
20-Oct-17 13:22 39.043027 -108.441686 325 7557ft 196kts
20-Oct-17 13:23 39.085010 -108.467923 320 6173ft 170kts
20-Oct-17 13:24 39.108538 -108.495136 293 5314ft 153kts
20-Oct-17 13:25 39.128504 -108.532801 308 4869ft 33kts
20-Oct-17 13:26 39.129483 -108.536212 221 4869ft 1kts
20-Oct-17 13:27 39.127258 -108.532704 125 4869ft 15kts
20-Oct-17 13:28 39.125295 -108.530975 215 4869ft 6kts

Navigation Log

Ident Type
Flight plan parsing failed, navigation log unavailable